sensor_id;sensor_type;location;lat;lon;timestamp;pressure;altitude;pressure_sealevel;temperature;humidity
73151;BME280;61354;50.758;6.106;2023-03-17T00:01:01;98488.97;;;10.18;48.58
73151;BME280;61354;50.758;6.106;2023-03-17T00:03:28;98492.38;;;10.08;48.94
73151;BME280;61354;50.758;6.106;2023-03-17T00:05:55;98504.03;;;10.17;48.29
73151;BME280;61354;50.758;6.106;2023-03-17T00:08:27;98514.84;;;10.03;50.03
73151;BME280;61354;50.758;6.106;2023-03-17T00:10:53;98518.06;;;10.05;48.93
73151;BME280;61354;50.758;6.106;2023-03-17T00:13:19;98526.56;;;9.93;50.21
73151;BME280;61354;50.758;6.106;2023-03-17T00:15:49;98540.25;;;10.05;48.66
73151;BME280;61354;50.758;6.106;2023-03-17T00:18:17;98546.38;;;10.14;48.84
73151;BME280;61354;50.758;6.106;2023-03-17T00:20:44;98540.19;;;10.02;49.47
73151;BME280;61354;50.758;6.106;2023-03-17T00:23:15;98535.75;;;9.97;49.60
73151;BME280;61354;50.758;6.106;2023-03-17T00:25:41;98531.25;;;9.89;50.76
73151;BME280;61354;50.758;6.106;2023-03-17T00:28:14;98520.28;;;9.96;49.77
73151;BME280;61354;50.758;6.106;2023-03-17T00:30:40;98518.38;;;10.00;50.10
73151;BME280;61354;50.758;6.106;2023-03-17T00:33:06;98514.31;;;9.94;50.59
73151;BME280;61354;50.758;6.106;2023-03-17T00:35:31;98509.19;;;9.96;50.14
73151;BME280;61354;50.758;6.106;2023-03-17T00:37:57;98499.63;;;9.93;50.65
73151;BME280;61354;50.758;6.106;2023-03-17T00:40:26;98493.84;;;10.02;50.37
73151;BME280;61354;50.758;6.106;2023-03-17T00:42:55;98492.06;;;10.13;49.90
73151;BME280;61354;50.758;6.106;2023-03-17T00:45:23;98489.28;;;10.13;49.67
73151;BME280;61354;50.758;6.106;2023-03-17T00:47:51;98479.41;;;10.16;49.87
73151;BME280;61354;50.758;6.106;2023-03-17T00:50:20;98473.84;;;10.16;49.89
73151;BME280;61354;50.758;6.106;2023-03-17T00:52:50;98469.94;;;10.17;49.95
73151;BME280;61354;50.758;6.106;2023-03-17T00:55:17;98464.38;;;10.17;50.34
73151;BME280;61354;50.758;6.106;2023-03-17T00:57:44;98459.94;;;10.12;50.76
73151;BME280;61354;50.758;6.106;2023-03-17T01:02:46;98450.50;;;10.17;50.47
73151;BME280;61354;50.758;6.106;2023-03-17T01:05:12;98452.78;;;10.11;50.40
73151;BME280;61354;50.758;6.106;2023-03-17T01:07:38;98465.13;;;10.14;50.76
73151;BME280;61354;50.758;6.106;2023-03-17T01:10:16;98461.16;;;10.15;50.90
73151;BME280;61354;50.758;6.106;2023-03-17T01:12:43;98454.94;;;10.21;50.25
73151;BME280;61354;50.758;6.106;2023-03-17T01:15:12;98449.53;;;10.29;50.09
73151;BME280;61354;50.758;6.106;2023-03-17T01:17:38;98440.63;;;10.19;50.43
73151;BME280;61354;50.758;6.106;2023-03-17T01:20:05;98436.69;;;10.20;50.77
73151;BME280;61354;50.758;6.106;2023-03-17T01:22:31;98441.38;;;10.16;50.73
73151;BME280;61354;50.758;6.106;2023-03-17T01:24:57;98434.13;;;10.08;51.12
73151;BME280;61354;50.758;6.106;2023-03-17T01:27:23;98433.56;;;9.99;51.99
73151;BME280;61354;50.758;6.106;2023-03-17T01:29:53;98434.84;;;10.05;51.54
73151;BME280;61354;50.758;6.106;2023-03-17T01:32:20;98427.22;;;9.99;51.86
73151;BME280;61354;50.758;6.106;2023-03-17T01:34:46;98421.31;;;10.00;51.78
73151;BME280;61354;50.758;6.106;2023-03-17T01:37:12;98423.63;;;9.98;51.84
73151;BME280;61354;50.758;6.106;2023-03-17T01:39:39;98420.53;;;10.03;51.17
73151;BME280;61354;50.758;6.106;2023-03-17T01:42:05;98430.16;;;10.09;51.26
73151;BME280;61354;50.758;6.106;2023-03-17T01:44:31;98434.84;;;10.05;51.76
73151;BME280;61354;50.758;6.106;2023-03-17T01:46:57;98444.03;;;10.09;51.50
73151;BME280;61354;50.758;6.106;2023-03-17T01:49:34;98444.78;;;10.06;51.85
73151;BME280;61354;50.758;6.106;2023-03-17T01:52:12;98461.84;;;10.08;50.90
73151;BME280;61354;50.758;6.106;2023-03-17T01:54:53;98459.63;;;10.17;50.31
73151;BME280;61354;50.758;6.106;2023-03-17T01:57:34;98464.31;;;10.13;50.94
73151;BME280;61354;50.758;6.106;2023-03-17T02:00:05;98448.47;;;10.14;51.05
73151;BME280;61354;50.758;6.106;2023-03-17T02:02:38;98444.78;;;10.06;51.47
73151;BME280;61354;50.758;6.106;2023-03-17T02:05:09;98429.19;;;9.98;52.25
73151;BME280;61354;50.758;6.106;2023-03-17T02:07:35;98416.81;;;9.92;52.20
73151;BME280;61354;50.758;6.106;2023-03-17T02:10:03;98412.53;;;9.98;52.06
73151;BME280;61354;50.758;6.106;2023-03-17T02:12:29;98422.97;;;10.05;52.08
73151;BME280;61354;50.758;6.106;2023-03-17T02:14:55;98419.00;;;10.06;51.23
73151;BME280;61354;50.758;6.106;2023-03-17T02:17:24;98424.50;;;10.02;51.66
73151;BME280;61354;50.758;6.106;2023-03-17T02:19:50;98418.88;;;9.99;51.99
73151;BME280;61354;50.758;6.106;2023-03-17T02:22:17;98418.81;;;9.95;52.43
73151;BME280;61354;50.758;6.106;2023-03-17T02:24:50;98420.88;;;9.98;51.53
73151;BME280;61354;50.758;6.106;2023-03-17T02:27:38;98428.31;;;9.94;51.96
73151;BME280;61354;50.758;6.106;2023-03-17T02:30:13;98412.38;;;9.87;52.23
73151;BME280;61354;50.758;6.106;2023-03-17T02:32:39;98418.66;;;9.84;52.89
73151;BME280;61354;50.758;6.106;2023-03-17T02:35:06;98412.31;;;9.84;52.54
73151;BME280;61354;50.758;6.106;2023-03-17T02:37:32;98414.59;;;9.78;53.17
73151;BME280;61354;50.758;6.106;2023-03-17T02:39:59;98412.63;;;9.79;52.64
73151;BME280;61354;50.758;6.106;2023-03-17T02:42:26;98406.66;;;9.77;52.39
73151;BME280;61354;50.758;6.106;2023-03-17T02:44:52;98413.72;;;9.74;52.83
73151;BME280;61354;50.758;6.106;2023-03-17T02:47:18;98412.19;;;9.77;52.42
73151;BME280;61354;50.758;6.106;2023-03-17T02:49:44;98406.16;;;9.71;53.24
73151;BME280;61354;50.758;6.106;2023-03-17T02:52:10;98400.03;;;9.62;53.58
73151;BME280;61354;50.758;6.106;2023-03-17T02:54:36;98405.97;;;9.60;53.56
73151;BME280;61354;50.758;6.106;2023-03-17T02:57:03;98409.47;;;9.57;54.06
73151;BME280;61354;50.758;6.106;2023-03-17T02:59:29;98410.22;;;9.54;53.96
73151;BME280;61354;50.758;6.106;2023-03-17T03:01:54;98401.47;;;9.52;53.95
73151;BME280;61354;50.758;6.106;2023-03-17T03:04:20;98399.09;;;9.51;54.18
73151;BME280;61354;50.758;6.106;2023-03-17T03:06:47;98404.25;;;9.52;54.62
73151;BME280;61354;50.758;6.106;2023-03-17T03:09:13;98407.75;;;9.49;53.62
73151;BME280;61354;50.758;6.106;2023-03-17T03:11:40;98407.31;;;9.47;54.40
73151;BME280;61354;50.758;6.106;2023-03-17T03:14:06;98403.63;;;9.39;55.52
73151;BME280;61354;50.758;6.106;2023-03-17T03:16:33;98392.47;;;9.36;55.09
73151;BME280;61354;50.758;6.106;2023-03-17T03:18:58;98394.75;;;9.30;55.02
73151;BME280;61354;50.758;6.106;2023-03-17T03:21:24;98390.31;;;9.26;55.36
73151;BME280;61354;50.758;6.106;2023-03-17T03:23:50;98392.94;;;9.18;56.30
73151;BME280;61354;50.758;6.106;2023-03-17T03:26:15;98394.13;;;9.17;56.04
73151;BME280;61354;50.758;6.106;2023-03-17T03:28:41;98399.22;;;9.15;56.02
73151;BME280;61354;50.758;6.106;2023-03-17T03:31:07;98399.13;;;9.12;55.96
73151;BME280;61354;50.758;6.106;2023-03-17T03:33:33;98400.75;;;9.13;56.50
73151;BME280;61354;50.758;6.106;2023-03-17T03:35:58;98409.41;;;9.11;55.78
73151;BME280;61354;50.758;6.106;2023-03-17T03:38:25;98401.56;;;9.13;56.02
73151;BME280;61354;50.758;6.106;2023-03-17T03:40:51;98410.28;;;9.15;55.96
73151;BME280;61354;50.758;6.106;2023-03-17T03:43:17;98411.03;;;9.12;56.21
73151;BME280;61354;50.758;6.106;2023-03-17T03:45:43;98415.25;;;9.06;56.86
73151;BME280;61354;50.758;6.106;2023-03-17T03:48:11;98425.91;;;9.04;56.86
73151;BME280;61354;50.758;6.106;2023-03-17T03:50:37;98419.78;;;8.95;57.40
73151;BME280;61354;50.758;6.106;2023-03-17T03:53:03;98415.41;;;8.94;57.25
73151;BME280;61354;50.758;6.106;2023-03-17T03:55:29;98416.13;;;8.91;57.17
73151;BME280;61354;50.758;6.106;2023-03-17T03:57:55;98412.94;;;8.89;57.74
73151;BME280;61354;50.758;6.106;2023-03-17T04:00:20;98427.97;;;8.88;57.23
73151;BME280;61354;50.758;6.106;2023-03-17T04:02:47;98432.75;;;8.91;57.01
73151;BME280;61354;50.758;6.106;2023-03-17T04:05:14;98429.56;;;8.89;57.69
73151;BME280;61354;50.758;6.106;2023-03-17T04:07:40;98429.56;;;8.89;57.73
73151;BME280;61354;50.758;6.106;2023-03-17T04:10:10;98428.69;;;8.85;57.68
73151;BME280;61354;50.758;6.106;2023-03-17T04:12:37;98425.91;;;8.85;58.13
73151;BME280;61354;50.758;6.106;2023-03-17T04:15:04;98434.22;;;8.85;58.21
73151;BME280;61354;50.758;6.106;2023-03-17T04:17:30;98440.56;;;8.85;57.96
73151;BME280;61354;50.758;6.106;2023-03-17T04:19:56;98431.00;;;8.83;57.97
73151;BME280;61354;50.758;6.106;2023-03-17T04:22:22;98427.34;;;8.79;59.11
73151;BME280;61354;50.758;6.106;2023-03-17T04:24:48;98431.75;;;8.80;58.63
73151;BME280;61354;50.758;6.106;2023-03-17T04:27:13;98417.91;;;8.80;59.00
73151;BME280;61354;50.758;6.106;2023-03-17T04:29:40;98413.97;;;8.81;58.67
73151;BME280;61354;50.758;6.106;2023-03-17T04:32:08;98419.91;;;8.83;58.95
73151;BME280;61354;50.758;6.106;2023-03-17T04:34:35;98408.78;;;8.79;58.91
73151;BME280;61354;50.758;6.106;2023-03-17T04:37:01;98411.19;;;8.81;58.91
73151;BME280;61354;50.758;6.106;2023-03-17T04:39:27;98424.66;;;8.82;58.66
73151;BME280;61354;50.758;6.106;2023-03-17T04:41:53;98422.25;;;8.81;59.26
73151;BME280;61354;50.758;6.106;2023-03-17T04:44:18;98419.56;;;8.84;58.51
73151;BME280;61354;50.758;6.106;2023-03-17T04:46:44;98428.22;;;8.83;58.99
73151;BME280;61354;50.758;6.106;2023-03-17T04:49:11;98426.69;;;8.85;58.60
73151;BME280;61354;50.758;6.106;2023-03-17T04:51:37;98433.03;;;8.86;59.04
73151;BME280;61354;50.758;6.106;2023-03-17T04:54:03;98429.47;;;8.85;59.05
73151;BME280;61354;50.758;6.106;2023-03-17T04:56:29;98429.03;;;8.83;58.97
73151;BME280;61354;50.758;6.106;2023-03-17T04:58:55;98431.00;;;8.83;59.36
73151;BME280;61354;50.758;6.106;2023-03-17T05:01:20;98421.00;;;8.78;59.57
73151;BME280;61354;50.758;6.106;2023-03-17T05:03:46;98411.03;;;8.74;59.39
73151;BME280;61354;50.758;6.106;2023-03-17T05:06:12;98412.63;;;8.75;59.14
73151;BME280;61354;50.758;6.106;2023-03-17T05:08:38;98411.84;;;8.74;59.18
73151;BME280;61354;50.758;6.106;2023-03-17T05:11:04;98417.38;;;8.74;59.55
73151;BME280;61354;50.758;6.106;2023-03-17T05:13:29;98412.63;;;8.75;59.57
73151;BME280;61354;50.758;6.106;2023-03-17T05:15:55;98419.00;;;8.75;59.72
73151;BME280;61354;50.758;6.106;2023-03-17T05:18:23;98420.59;;;8.76;59.75
73151;BME280;61354;50.758;6.106;2023-03-17T05:20:49;98420.66;;;8.80;59.39
73151;BME280;61354;50.758;6.106;2023-03-17T05:23:15;98420.66;;;8.80;59.40
73151;BME280;61354;50.758;6.106;2023-03-17T05:25:40;98416.22;;;8.75;59.83
73151;BME280;61354;50.758;6.106;2023-03-17T05:28:07;98420.59;;;8.76;59.68
73151;BME280;61354;50.758;6.106;2023-03-17T05:30:33;98415.41;;;8.75;59.74
73151;BME280;61354;50.758;6.106;2023-03-17T05:33:01;98412.63;;;8.75;59.96
73151;BME280;61354;50.758;6.106;2023-03-17T05:35:27;98406.22;;;8.70;60.67
73151;BME280;61354;50.758;6.106;2023-03-17T05:37:52;98416.88;;;8.68;59.98
73151;BME280;61354;50.758;6.106;2023-03-17T05:40:18;98409.28;;;8.65;61.18
73151;BME280;61354;50.758;6.106;2023-03-17T05:42:44;98406.97;;;8.67;60.43
73151;BME280;61354;50.758;6.106;2023-03-17T05:45:10;98410.88;;;8.66;60.50
73151;BME280;61354;50.758;6.106;2023-03-17T05:47:36;98412.94;;;8.69;60.44
73151;BME280;61354;50.758;6.106;2023-03-17T05:50:04;98414.00;;;8.65;61.10
73151;BME280;61354;50.758;6.106;2023-03-17T05:52:30;98412.75;;;8.62;60.98
73151;BME280;61354;50.758;6.106;2023-03-17T05:54:56;98401.69;;;8.62;60.87
73151;BME280;61354;50.758;6.106;2023-03-17T05:57:22;98406.88;;;8.64;60.96
73151;BME280;61354;50.758;6.106;2023-03-17T05:59:48;98412.50;;;8.67;61.41
73151;BME280;61354;50.758;6.106;2023-03-17T06:02:14;98409.44;;;8.73;60.63
73151;BME280;61354;50.758;6.106;2023-03-17T06:04:40;98402.44;;;8.79;60.63
73151;BME280;61354;50.758;6.106;2023-03-17T06:07:08;98406.38;;;8.78;60.87
73151;BME280;61354;50.758;6.106;2023-03-17T06:09:34;98394.88;;;8.76;61.25
73151;BME280;61354;50.758;6.106;2023-03-17T06:12:00;98391.22;;;8.71;61.34
73151;BME280;61354;50.758;6.106;2023-03-17T06:14:26;98398.44;;;8.76;60.85
73151;BME280;61354;50.758;6.106;2023-03-17T06:16:52;98404.47;;;8.82;60.41
73151;BME280;61354;50.758;6.106;2023-03-17T06:19:18;98405.66;;;8.81;60.62
73151;BME280;61354;50.758;6.106;2023-03-17T06:21:43;98403.31;;;8.83;61.08
73151;BME280;61354;50.758;6.106;2023-03-17T06:24:09;98409.63;;;8.83;60.76
73151;BME280;61354;50.758;6.106;2023-03-17T06:26:35;98404.94;;;8.84;61.12
73151;BME280;61354;50.758;6.106;2023-03-17T06:29:04;98406.53;;;8.85;61.29
73151;BME280;61354;50.758;6.106;2023-03-17T06:31:33;98404.97;;;8.87;61.15
73151;BME280;61354;50.758;6.106;2023-03-17T06:33:59;98408.63;;;8.91;61.31
73151;BME280;61354;50.758;6.106;2023-03-17T06:36:24;98405.94;;;8.95;61.09
73151;BME280;61354;50.758;6.106;2023-03-17T06:38:50;98406.72;;;8.95;61.47
73151;BME280;61354;50.758;6.106;2023-03-17T06:41:16;98405.22;;;8.98;61.22
73151;BME280;61354;50.758;6.106;2023-03-17T06:43:41;98404.19;;;9.06;61.15
73151;BME280;61354;50.758;6.106;2023-03-17T06:46:07;98409.41;;;9.11;62.07
73151;BME280;61354;50.758;6.106;2023-03-17T06:48:33;98417.41;;;9.16;61.32
73151;BME280;61354;50.758;6.106;2023-03-17T06:50:59;98415.09;;;9.18;60.64
73151;BME280;61354;50.758;6.106;2023-03-17T06:53:25;98421.81;;;9.17;60.95
73151;BME280;61354;50.758;6.106;2023-03-17T06:55:50;98423.09;;;9.24;60.99
73151;BME280;61354;50.758;6.106;2023-03-17T06:58:16;98419.91;;;9.21;61.22
73151;BME280;61354;50.758;6.106;2023-03-17T07:00:42;98425.09;;;9.23;61.31
73151;BME280;61354;50.758;6.106;2023-03-17T07:03:11;98427.06;;;9.23;61.95
73151;BME280;61354;50.758;6.106;2023-03-17T07:05:37;98429.44;;;9.24;60.83
73151;BME280;61354;50.758;6.106;2023-03-17T07:08:04;98429.09;;;9.26;61.25
73151;BME280;61354;50.758;6.106;2023-03-17T07:10:30;98423.25;;;9.31;61.49
73151;BME280;61354;50.758;6.106;2023-03-17T07:12:57;98425.72;;;9.36;61.46
73151;BME280;61354;50.758;6.106;2023-03-17T07:15:23;98426.66;;;9.43;60.69
73151;BME280;61354;50.758;6.106;2023-03-17T07:17:49;98428.47;;;9.55;60.49
73151;BME280;61354;50.758;6.106;2023-03-17T07:20:15;98422.66;;;9.64;60.41
73151;BME280;61354;50.758;6.106;2023-03-17T07:22:40;98423.16;;;9.69;60.27
73151;BME280;61354;50.758;6.106;2023-03-17T07:25:07;98427.25;;;9.76;59.84
73151;BME280;61354;50.758;6.106;2023-03-17T07:27:34;98437.59;;;9.79;59.62
73151;BME280;61354;50.758;6.106;2023-03-17T07:30:00;98435.31;;;9.84;60.49
73151;BME280;61354;50.758;6.106;2023-03-17T07:32:29;98434.00;;;9.78;60.97
73151;BME280;61354;50.758;6.106;2023-03-17T07:34:55;98440.06;;;9.84;60.54
73151;BME280;61354;50.758;6.106;2023-03-17T07:37:22;98435.38;;;9.88;60.16
73151;BME280;61354;50.758;6.106;2023-03-17T07:39:48;98428.16;;;9.83;61.47
73151;BME280;61354;50.758;6.106;2023-03-17T07:42:15;98432.09;;;9.82;61.08
73151;BME280;61354;50.758;6.106;2023-03-17T07:44:42;98432.88;;;9.83;61.00
73151;BME280;61354;50.758;6.106;2023-03-17T07:47:09;98430.50;;;9.81;60.94
73151;BME280;61354;50.758;6.106;2023-03-17T07:49:35;98425.31;;;9.80;61.48
73151;BME280;61354;50.758;6.106;2023-03-17T07:52:00;98423.81;;;9.86;60.77
73151;BME280;61354;50.758;6.106;2023-03-17T07:54:26;98427.06;;;9.88;61.09
73151;BME280;61354;50.758;6.106;2023-03-17T07:56:53;98430.75;;;9.95;60.88
73151;BME280;61354;50.758;6.106;2023-03-17T07:59:19;98430.78;;;9.99;61.06
73151;BME280;61354;50.758;6.106;2023-03-17T08:01:45;98432.47;;;10.04;61.26
73151;BME280;61354;50.758;6.106;2023-03-17T08:04:11;98442.84;;;10.10;60.71
73151;BME280;61354;50.758;6.106;2023-03-17T08:06:41;98440.94;;;10.14;60.73
73151;BME280;61354;50.758;6.106;2023-03-17T08:09:08;98447.28;;;10.15;60.72
73151;BME280;61354;50.758;6.106;2023-03-17T08:11:36;98442.53;;;10.15;60.96
73151;BME280;61354;50.758;6.106;2023-03-17T08:14:03;98454.06;;;10.17;61.15
73151;BME280;61354;50.758;6.106;2023-03-17T08:16:33;98459.97;;;10.16;61.42
73151;BME280;61354;50.758;6.106;2023-03-17T08:18:59;98463.19;;;10.18;60.43
73151;BME280;61354;50.758;6.106;2023-03-17T08:21:25;98466.84;;;10.22;61.01
73151;BME280;61354;50.758;6.106;2023-03-17T08:23:52;98446.31;;;10.27;60.99
73151;BME280;61354;50.758;6.106;2023-03-17T08:26:18;98447.91;;;10.28;60.66
73151;BME280;61354;50.758;6.106;2023-03-17T08:28:45;98442.38;;;10.28;60.84
73151;BME280;61354;50.758;6.106;2023-03-17T08:31:17;98438.84;;;10.31;61.05
73151;BME280;61354;50.758;6.106;2023-03-17T08:33:48;98444.13;;;10.39;59.65
73151;BME280;61354;50.758;6.106;2023-03-17T08:36:15;98441.00;;;10.41;60.78
73151;BME280;61354;50.758;6.106;2023-03-17T08:38:42;98436.72;;;10.47;60.17
73151;BME280;61354;50.758;6.106;2023-03-17T08:41:10;98438.41;;;10.55;61.34
73151;BME280;61354;50.758;6.106;2023-03-17T08:43:36;98419.88;;;10.63;60.43
73151;BME280;61354;50.758;6.106;2023-03-17T08:46:05;98429.97;;;10.75;60.02
73151;BME280;61354;50.758;6.106;2023-03-17T08:48:32;98424.09;;;10.80;61.23
73151;BME280;61354;50.758;6.106;2023-03-17T08:50:58;98432.19;;;10.92;61.09
73151;BME280;61354;50.758;6.106;2023-03-17T08:53:24;98426.72;;;10.99;60.90
73151;BME280;61354;50.758;6.106;2023-03-17T08:55:50;98426.78;;;11.06;60.15
73151;BME280;61354;50.758;6.106;2023-03-17T08:58:18;98428.47;;;11.14;59.64
73151;BME280;61354;50.758;6.106;2023-03-17T09:00:44;98414.22;;;11.19;59.83
73151;BME280;61354;50.758;6.106;2023-03-17T09:03:11;98423.84;;;11.26;59.78
73151;BME280;61354;50.758;6.106;2023-03-17T09:05:36;98425.53;;;11.34;59.68
73151;BME280;61354;50.758;6.106;2023-03-17T09:08:02;98423.22;;;11.43;60.10
73151;BME280;61354;50.758;6.106;2023-03-17T09:10:28;98430.47;;;11.51;59.96
73151;BME280;61354;50.758;6.106;2023-03-17T09:12:54;98432.97;;;11.63;60.31
73151;BME280;61354;50.758;6.106;2023-03-17T09:15:27;98428.25;;;11.67;59.77
73151;BME280;61354;50.758;6.106;2023-03-17T09:17:53;98426.75;;;11.77;59.87
73151;BME280;61354;50.758;6.106;2023-03-17T09:20:19;98431.59;;;11.84;59.58
73151;BME280;61354;50.758;6.106;2023-03-17T09:22:46;98436.06;;;11.92;59.16
73151;BME280;61354;50.758;6.106;2023-03-17T09:25:14;98428.94;;;11.94;58.19
73151;BME280;61354;50.758;6.106;2023-03-17T09:27:40;98430.94;;;11.98;59.26
73151;BME280;61354;50.758;6.106;2023-03-17T09:30:06;98436.97;;;12.03;58.91
73151;BME280;61354;50.758;6.106;2023-03-17T09:32:34;98445.34;;;12.10;57.69
73151;BME280;61354;50.758;6.106;2023-03-17T09:35:00;98444.19;;;12.15;58.70
73151;BME280;61354;50.758;6.106;2023-03-17T09:37:26;98441.50;;;12.26;57.71
73151;BME280;61354;50.758;6.106;2023-03-17T09:39:52;98443.97;;;12.38;57.05
73151;BME280;61354;50.758;6.106;2023-03-17T09:45:32;98441.19;;;12.38;57.45
73151;BME280;61354;50.758;6.106;2023-03-17T09:48:07;98444.03;;;12.45;56.96
73151;BME280;61354;50.758;6.106;2023-03-17T09:50:53;98439.28;;;12.49;57.46
73151;BME280;61354;50.758;6.106;2023-03-17T09:53:24;98440.03;;;12.42;57.98
73151;BME280;61354;50.758;6.106;2023-03-17T09:55:54;98440.81;;;12.43;57.69
73151;BME280;61354;50.758;6.106;2023-03-17T09:58:31;98439.28;;;12.49;57.99
73151;BME280;61354;50.758;6.106;2023-03-17T10:00:58;98437.34;;;12.60;57.57
73151;BME280;61354;50.758;6.106;2023-03-17T10:03:24;98438.66;;;12.74;57.78
73151;BME280;61354;50.758;6.106;2023-03-17T10:05:50;98426.78;;;12.91;57.82
73151;BME280;61354;50.758;6.106;2023-03-17T10:08:21;98420.50;;;13.08;55.76
73151;BME280;61354;50.758;6.106;2023-03-17T10:13:41;98421.44;;;13.48;56.31
73151;BME280;61354;50.758;6.106;2023-03-17T10:16:15;98415.13;;;13.69;56.03
73151;BME280;61354;50.758;6.106;2023-03-17T10:18:50;98411.94;;;13.78;55.64
73151;BME280;61354;50.758;6.106;2023-03-17T10:21:21;98405.16;;;13.93;55.67
73151;BME280;61354;50.758;6.106;2023-03-17T10:23:49;98398.00;;;14.06;55.07
73151;BME280;61354;50.758;6.106;2023-03-17T10:28:57;98396.75;;;14.32;55.29
73151;BME280;61354;50.758;6.106;2023-03-17T10:31:30;98401.16;;;14.33;54.97
73151;BME280;61354;50.758;6.106;2023-03-17T10:34:20;98395.53;;;14.51;54.71
73151;BME280;61354;50.758;6.106;2023-03-17T10:39:53;98387.53;;;14.67;55.37
73151;BME280;61354;50.758;6.106;2023-03-17T10:42:25;98389.88;;;14.83;53.20
73151;BME280;61354;50.758;6.106;2023-03-17T10:44:59;98397.06;;;14.84;53.68
73151;BME280;61354;50.758;6.106;2023-03-17T10:47:33;98386.25;;;14.94;53.45
73151;BME280;61354;50.758;6.106;2023-03-17T10:50:23;98389.41;;;15.03;53.73
73151;BME280;61354;50.758;6.106;2023-03-17T10:55:27;98389.78;;;15.08;54.63
73151;BME280;61354;50.758;6.106;2023-03-17T11:01:27;98382.03;;;15.37;54.12
73151;BME280;61354;50.758;6.106;2023-03-17T11:03:54;98381.97;;;15.52;52.51
73151;BME280;61354;50.758;6.106;2023-03-17T11:06:32;98363.03;;;15.74;53.67
73151;BME280;61354;50.758;6.106;2023-03-17T11:09:05;98365.72;;;15.88;52.94
73151;BME280;61354;50.758;6.106;2023-03-17T11:11:33;98371.25;;;15.99;53.21
73151;BME280;61354;50.758;6.106;2023-03-17T11:14:16;98363.66;;;15.96;53.24
73151;BME280;61354;50.758;6.106;2023-03-17T11:17:03;98362.81;;;16.02;52.92
73151;BME280;61354;50.758;6.106;2023-03-17T11:22:21;98363.56;;;16.06;54.34
73151;BME280;61354;50.758;6.106;2023-03-17T11:25:08;98357.56;;;16.08;54.10
73151;BME280;61354;50.758;6.106;2023-03-17T11:27:48;98349.56;;;16.06;53.05
73151;BME280;61354;50.758;6.106;2023-03-17T11:38:23;98350.69;;;16.16;53.90
73151;BME280;61354;50.758;6.106;2023-03-17T11:44:07;98348.34;;;16.49;51.33
73151;BME280;61354;50.758;6.106;2023-03-17T11:46:50;98349.97;;;16.46;51.73
73151;BME280;61354;50.758;6.106;2023-03-17T11:49:25;98341.97;;;16.45;51.89
73151;BME280;61354;50.758;6.106;2023-03-17T11:54:56;98338.97;;;16.62;52.21
73151;BME280;61354;50.758;6.106;2023-03-17T12:00:02;98342.50;;;16.70;52.45
73151;BME280;61354;50.758;6.106;2023-03-17T12:02:37;98341.22;;;16.78;51.02
73151;BME280;61354;50.758;6.106;2023-03-17T12:05:15;98332.03;;;16.78;52.16
73151;BME280;61354;50.758;6.106;2023-03-17T12:10:59;98323.13;;;16.83;51.24
73151;BME280;61354;50.758;6.106;2023-03-17T12:13:37;98330.41;;;16.80;51.26
73151;BME280;61354;50.758;6.106;2023-03-17T12:16:26;98333.56;;;16.82;51.47
73151;BME280;61354;50.758;6.106;2023-03-17T12:19:26;98334.28;;;16.90;51.81
73151;BME280;61354;50.758;6.106;2023-03-17T12:22:02;98326.19;;;16.96;50.86
73151;BME280;61354;50.758;6.106;2023-03-17T12:24:39;98328.19;;;16.95;51.02
73151;BME280;61354;50.758;6.106;2023-03-17T12:27:21;98327.69;;;17.04;50.52
73151;BME280;61354;50.758;6.106;2023-03-17T12:29:59;98331.78;;;16.96;49.03
73151;BME280;61354;50.758;6.106;2023-03-17T12:32:50;98328.16;;;16.99;49.66
73151;BME280;61354;50.758;6.106;2023-03-17T12:35:25;98336.59;;;16.95;48.72
73151;BME280;61354;50.758;6.106;2023-03-17T12:37:53;98324.91;;;17.00;51.55
73151;BME280;61354;50.758;6.106;2023-03-17T12:40:22;98319.69;;;17.02;50.54
73151;BME280;61354;50.758;6.106;2023-03-17T12:42:58;98319.66;;;17.06;50.00
73151;BME280;61354;50.758;6.106;2023-03-17T12:48:36;98323.50;;;17.15;49.92
73151;BME280;61354;50.758;6.106;2023-03-17T12:53:43;98326.59;;;17.25;48.23
73151;BME280;61354;50.758;6.106;2023-03-17T12:56:30;98322.59;;;17.26;49.42
73151;BME280;61354;50.758;6.106;2023-03-17T12:59:08;98315.06;;;17.46;49.76
73151;BME280;61354;50.758;6.106;2023-03-17T13:01:43;98310.19;;;17.50;47.69
73151;BME280;61354;50.758;6.106;2023-03-17T13:04:21;98318.66;;;17.47;48.83
73151;BME280;61354;50.758;6.106;2023-03-17T13:11:52;98315.53;;;17.41;49.61
73151;BME280;61354;50.758;6.106;2023-03-17T13:20:16;98334.44;;;17.37;50.14
73151;BME280;61354;50.758;6.106;2023-03-17T13:23:32;98328.81;;;17.37;50.15
73151;BME280;61354;50.758;6.106;2023-03-17T13:25:59;98316.75;;;17.40;51.40
73151;BME280;61354;50.758;6.106;2023-03-17T13:28:39;98308.91;;;17.28;50.07
73151;BME280;61354;50.758;6.106;2023-03-17T13:31:28;98323.31;;;17.30;49.85
73151;BME280;61354;50.758;6.106;2023-03-17T13:34:20;98316.97;;;17.26;50.21
73151;BME280;61354;50.758;6.106;2023-03-17T13:45:38;98302.06;;;17.02;49.78
73151;BME280;61354;50.758;6.106;2023-03-17T13:48:39;98295.72;;;16.98;51.34
73151;BME280;61354;50.758;6.106;2023-03-17T13:54:05;98288.66;;;16.86;52.10
73151;BME280;61354;50.758;6.106;2023-03-17T14:01:29;98298.56;;;16.94;50.05
73151;BME280;61354;50.758;6.106;2023-03-17T14:04:01;98303.31;;;17.01;48.99
73151;BME280;61354;50.758;6.106;2023-03-17T14:06:27;98301.75;;;16.96;49.94
73151;BME280;61354;50.758;6.106;2023-03-17T14:09:00;98299.78;;;16.93;51.03
73151;BME280;61354;50.758;6.106;2023-03-17T14:11:39;98297.13;;;16.82;51.00
73151;BME280;61354;50.758;6.106;2023-03-17T14:14:17;98293.59;;;16.75;50.57
73151;BME280;61354;50.758;6.106;2023-03-17T14:17:13;98302.88;;;16.68;49.58
73151;BME280;61354;50.758;6.106;2023-03-17T14:20:00;98309.78;;;16.60;50.66
73151;BME280;61354;50.758;6.106;2023-03-17T14:22:26;98301.13;;;16.47;49.05
73151;BME280;61354;50.758;6.106;2023-03-17T14:24:54;98295.69;;;16.33;48.81
73151;BME280;61354;50.758;6.106;2023-03-17T14:27:21;98289.69;;;16.34;48.54
73151;BME280;61354;50.758;6.106;2023-03-17T14:29:48;98290.50;;;16.31;49.12
73151;BME280;61354;50.758;6.106;2023-03-17T14:32:17;98292.66;;;16.16;49.55